sensor_id;sensor_type;location;lat;lon;timestamp;temperature;humidity
49489;SHT31;35382;51.484;11.476;2023-08-01T00:00:48;15.72;97.02
49489;SHT31;35382;51.484;11.476;2023-08-01T00:03:14;15.75;97.00
49489;SHT31;35382;51.484;11.476;2023-08-01T00:05:40;15.76;96.74
49489;SHT31;35382;51.484;11.476;2023-08-01T00:08:05;15.73;96.87
49489;SHT31;35382;51.484;11.476;2023-08-01T00:10:31;15.78;96.70
49489;SHT31;35382;51.484;11.476;2023-08-01T00:12:56;15.76;96.83
49489;SHT31;35382;51.484;11.476;2023-08-01T00:15:22;15.78;96.67
49489;SHT31;35382;51.484;11.476;2023-08-01T00:17:47;15.75;96.94
49489;SHT31;35382;51.484;11.476;2023-08-01T00:20:13;15.76;96.83
49489;SHT31;35382;51.484;11.476;2023-08-01T00:22:38;15.79;96.76
49489;SHT31;35382;51.484;11.476;2023-08-01T00:25:04;15.75;96.69
49489;SHT31;35382;51.484;11.476;2023-08-01T00:27:29;15.81;96.40
49489;SHT31;35382;51.484;11.476;2023-08-01T00:29:55;15.89;96.17
49489;SHT31;35382;51.484;11.476;2023-08-01T00:32:21;15.90;95.97
49489;SHT31;35382;51.484;11.476;2023-08-01T00:34:46;15.95;95.98
49489;SHT31;35382;51.484;11.476;2023-08-01T00:37:14;15.89;96.06
49489;SHT31;35382;51.484;11.476;2023-08-01T00:39:40;15.87;96.22
49489;SHT31;35382;51.484;11.476;2023-08-01T00:42:05;15.81;96.42
49489;SHT31;35382;51.484;11.476;2023-08-01T00:44:30;15.83;96.38
49489;SHT31;35382;51.484;11.476;2023-08-01T00:46:57;15.86;96.42
49489;SHT31;35382;51.484;11.476;2023-08-01T00:49:22;15.81;96.62
49489;SHT31;35382;51.484;11.476;2023-08-01T00:51:48;15.78;96.69
49489;SHT31;35382;51.484;11.476;2023-08-01T00:54:13;15.83;96.46
49489;SHT31;35382;51.484;11.476;2023-08-01T00:56:39;15.85;96.35
49489;SHT31;35382;51.484;11.476;2023-08-01T00:59:05;15.82;96.51
49489;SHT31;35382;51.484;11.476;2023-08-01T01:01:30;15.82;96.51
49489;SHT31;35382;51.484;11.476;2023-08-01T01:03:56;15.85;96.20
49489;SHT31;35382;51.484;11.476;2023-08-01T01:06:29;15.87;96.07
49489;SHT31;35382;51.484;11.476;2023-08-01T01:08:56;15.83;96.41
49489;SHT31;35382;51.484;11.476;2023-08-01T01:11:21;15.85;96.26
49489;SHT31;35382;51.484;11.476;2023-08-01T01:13:47;15.90;95.99
49489;SHT31;35382;51.484;11.476;2023-08-01T01:16:12;15.92;95.71
49489;SHT31;35382;51.484;11.476;2023-08-01T01:18:40;15.95;95.57
49489;SHT31;35382;51.484;11.476;2023-08-01T01:21:06;15.87;95.80
49489;SHT31;35382;51.484;11.476;2023-08-01T01:23:31;15.90;95.70
49489;SHT31;35382;51.484;11.476;2023-08-01T01:25:58;15.83;96.08
49489;SHT31;35382;51.484;11.476;2023-08-01T01:28:24;15.85;96.17
49489;SHT31;35382;51.484;11.476;2023-08-01T01:30:51;15.83;96.10
49489;SHT31;35382;51.484;11.476;2023-08-01T01:33:17;15.81;96.48
49489;SHT31;35382;51.484;11.476;2023-08-01T01:35:42;15.82;96.52
49489;SHT31;35382;51.484;11.476;2023-08-01T01:38:08;15.83;96.40
49489;SHT31;35382;51.484;11.476;2023-08-01T01:40:34;15.83;96.29
49489;SHT31;35382;51.484;11.476;2023-08-01T01:43:00;15.81;96.42
49489;SHT31;35382;51.484;11.476;2023-08-01T01:45:26;15.86;96.26
49489;SHT31;35382;51.484;11.476;2023-08-01T01:47:52;15.83;96.40
49489;SHT31;35382;51.484;11.476;2023-08-01T01:50:18;15.85;96.52
49489;SHT31;35382;51.484;11.476;2023-08-01T01:52:44;15.81;96.49
49489;SHT31;35382;51.484;11.476;2023-08-01T01:55:09;15.76;96.50
49489;SHT31;35382;51.484;11.476;2023-08-01T01:57:36;15.86;96.35
49489;SHT31;35382;51.484;11.476;2023-08-01T02:00:02;15.83;96.31
49489;SHT31;35382;51.484;11.476;2023-08-01T02:02:38;15.87;96.32
49489;SHT31;35382;51.484;11.476;2023-08-01T02:05:04;15.86;96.37
49489;SHT31;35382;51.484;11.476;2023-08-01T02:07:30;15.85;96.19
49489;SHT31;35382;51.484;11.476;2023-08-01T02:09:55;15.90;96.29
49489;SHT31;35382;51.484;11.476;2023-08-01T02:12:21;15.89;96.36
49489;SHT31;35382;51.484;11.476;2023-08-01T02:14:47;15.81;96.57
49489;SHT31;35382;51.484;11.476;2023-08-01T02:17:12;15.83;96.68
49489;SHT31;35382;51.484;11.476;2023-08-01T02:19:38;15.87;96.71
49489;SHT31;35382;51.484;11.476;2023-08-01T02:22:03;15.85;96.68
49489;SHT31;35382;51.484;11.476;2023-08-01T02:24:29;15.87;96.59
49489;SHT31;35382;51.484;11.476;2023-08-01T02:26:54;15.83;96.57
49489;SHT31;35382;51.484;11.476;2023-08-01T02:29:20;15.89;96.53
49489;SHT31;35382;51.484;11.476;2023-08-01T02:31:46;15.85;96.61
49489;SHT31;35382;51.484;11.476;2023-08-01T02:34:11;15.82;96.69
49489;SHT31;35382;51.484;11.476;2023-08-01T02:36:37;15.79;96.83
49489;SHT31;35382;51.484;11.476;2023-08-01T02:39:02;15.83;96.78
49489;SHT31;35382;51.484;11.476;2023-08-01T02:41:28;15.85;96.97
49489;SHT31;35382;51.484;11.476;2023-08-01T02:43:53;15.83;96.79
49489;SHT31;35382;51.484;11.476;2023-08-01T02:46:18;15.81;97.04
49489;SHT31;35382;51.484;11.476;2023-08-01T02:48:48;15.82;97.19
49489;SHT31;35382;51.484;11.476;2023-08-01T02:51:13;15.81;97.15
49489;SHT31;35382;51.484;11.476;2023-08-01T02:53:39;15.89;96.86
49489;SHT31;35382;51.484;11.476;2023-08-01T02:56:05;15.85;96.73
49489;SHT31;35382;51.484;11.476;2023-08-01T02:58:30;15.92;96.76
49489;SHT31;35382;51.484;11.476;2023-08-01T03:00:55;15.89;96.46
49489;SHT31;35382;51.484;11.476;2023-08-01T03:03:21;15.83;96.62
49489;SHT31;35382;51.484;11.476;2023-08-01T03:05:47;15.86;96.92
49489;SHT31;35382;51.484;11.476;2023-08-01T03:08:12;15.83;96.83
49489;SHT31;35382;51.484;11.476;2023-08-01T03:10:38;15.78;97.14
49489;SHT31;35382;51.484;11.476;2023-08-01T03:13:03;15.81;97.04
49489;SHT31;35382;51.484;11.476;2023-08-01T03:15:29;15.93;96.85
49489;SHT31;35382;51.484;11.476;2023-08-01T03:17:55;15.87;96.89
49489;SHT31;35382;51.484;11.476;2023-08-01T03:20:21;15.92;96.64
49489;SHT31;35382;51.484;11.476;2023-08-01T03:22:46;15.89;96.66
49489;SHT31;35382;51.484;11.476;2023-08-01T03:25:13;15.86;96.79
49489;SHT31;35382;51.484;11.476;2023-08-01T03:27:38;15.90;96.85
49489;SHT31;35382;51.484;11.476;2023-08-01T03:30:04;15.89;96.78
49489;SHT31;35382;51.484;11.476;2023-08-01T03:32:30;15.90;96.57
49489;SHT31;35382;51.484;11.476;2023-08-01T03:34:55;15.85;96.82
49489;SHT31;35382;51.484;11.476;2023-08-01T03:37:21;15.85;96.91
49489;SHT31;35382;51.484;11.476;2023-08-01T03:39:46;15.86;97.03
49489;SHT31;35382;51.484;11.476;2023-08-01T03:42:12;15.87;96.84
49489;SHT31;35382;51.484;11.476;2023-08-01T03:44:39;15.82;96.98
49489;SHT31;35382;51.484;11.476;2023-08-01T03:47:05;15.85;96.82
49489;SHT31;35382;51.484;11.476;2023-08-01T03:49:30;15.82;96.94
49489;SHT31;35382;51.484;11.476;2023-08-01T03:51:56;15.85;97.06
49489;SHT31;35382;51.484;11.476;2023-08-01T03:54:21;15.82;97.08
49489;SHT31;35382;51.484;11.476;2023-08-01T03:56:47;15.81;97.04
49489;SHT31;35382;51.484;11.476;2023-08-01T03:59:13;15.82;96.95
49489;SHT31;35382;51.484;11.476;2023-08-01T04:01:39;15.78;97.31
49489;SHT31;35382;51.484;11.476;2023-08-01T04:04:04;15.83;97.09
49489;SHT31;35382;51.484;11.476;2023-08-01T04:06:30;15.83;97.02
49489;SHT31;35382;51.484;11.476;2023-08-01T04:08:55;15.81;97.15
49489;SHT31;35382;51.484;11.476;2023-08-01T04:11:21;15.85;97.18
49489;SHT31;35382;51.484;11.476;2023-08-01T04:13:46;15.86;97.10
49489;SHT31;35382;51.484;11.476;2023-08-01T04:16:12;15.85;97.14
49489;SHT31;35382;51.484;11.476;2023-08-01T04:18:37;15.81;97.12
49489;SHT31;35382;51.484;11.476;2023-08-01T04:21:03;15.83;97.12
49489;SHT31;35382;51.484;11.476;2023-08-01T04:23:28;15.78;97.28
49489;SHT31;35382;51.484;11.476;2023-08-01T04:25:53;15.72;97.30
49489;SHT31;35382;51.484;11.476;2023-08-01T04:28:19;15.78;97.36
49489;SHT31;35382;51.484;11.476;2023-08-01T04:30:51;15.75;97.57
49489;SHT31;35382;51.484;11.476;2023-08-01T04:33:17;15.75;97.60
49489;SHT31;35382;51.484;11.476;2023-08-01T04:35:44;15.78;97.56
49489;SHT31;35382;51.484;11.476;2023-08-01T04:38:09;15.79;97.51
49489;SHT31;35382;51.484;11.476;2023-08-01T04:40:35;15.79;97.46
49489;SHT31;35382;51.484;11.476;2023-08-01T04:43:03;15.75;97.62
49489;SHT31;35382;51.484;11.476;2023-08-01T04:45:28;15.66;97.86
49489;SHT31;35382;51.484;11.476;2023-08-01T04:47:54;15.67;97.96
49489;SHT31;35382;51.484;11.476;2023-08-01T04:50:19;15.70;97.80
49489;SHT31;35382;51.484;11.476;2023-08-01T04:52:45;15.67;97.89
49489;SHT31;35382;51.484;11.476;2023-08-01T04:55:10;15.66;98.08
49489;SHT31;35382;51.484;11.476;2023-08-01T04:57:36;15.72;98.23
49489;SHT31;35382;51.484;11.476;2023-08-01T05:00:02;15.66;98.19
49489;SHT31;35382;51.484;11.476;2023-08-01T05:02:28;15.66;98.13
49489;SHT31;35382;51.484;11.476;2023-08-01T05:04:53;15.70;98.18
49489;SHT31;35382;51.484;11.476;2023-08-01T05:07:19;15.70;98.13
49489;SHT31;35382;51.484;11.476;2023-08-01T05:09:44;15.75;97.99
49489;SHT31;35382;51.484;11.476;2023-08-01T05:12:10;15.76;98.02
49489;SHT31;35382;51.484;11.476;2023-08-01T05:14:35;15.72;98.07
49489;SHT31;35382;51.484;11.476;2023-08-01T05:17:00;15.78;98.06
49489;SHT31;35382;51.484;11.476;2023-08-01T05:19:26;15.83;97.92
49489;SHT31;35382;51.484;11.476;2023-08-01T05:21:51;15.76;97.88
49489;SHT31;35382;51.484;11.476;2023-08-01T05:24:17;15.82;97.92
49489;SHT31;35382;51.484;11.476;2023-08-01T05:26:42;15.81;97.70
49489;SHT31;35382;51.484;11.476;2023-08-01T05:29:08;15.83;97.75
49489;SHT31;35382;51.484;11.476;2023-08-01T05:31:35;15.89;97.64
49489;SHT31;35382;51.484;11.476;2023-08-01T05:34:01;15.85;97.47
49489;SHT31;35382;51.484;11.476;2023-08-01T05:36:26;15.82;97.71
49489;SHT31;35382;51.484;11.476;2023-08-01T05:38:52;15.82;97.74
49489;SHT31;35382;51.484;11.476;2023-08-01T05:41:17;15.85;97.78
49489;SHT31;35382;51.484;11.476;2023-08-01T05:43:46;15.99;97.47
49489;SHT31;35382;51.484;11.476;2023-08-01T05:46:12;16.03;97.14
49489;SHT31;35382;51.484;11.476;2023-08-01T05:48:37;16.06;97.02
49489;SHT31;35382;51.484;11.476;2023-08-01T05:51:03;16.02;97.43
49489;SHT31;35382;51.484;11.476;2023-08-01T05:53:28;16.06;97.10
49489;SHT31;35382;51.484;11.476;2023-08-01T05:55:53;16.05;97.42
49489;SHT31;35382;51.484;11.476;2023-08-01T05:58:19;16.05;97.25
49489;SHT31;35382;51.484;11.476;2023-08-01T06:00:44;16.03;97.30
49489;SHT31;35382;51.484;11.476;2023-08-01T06:03:10;16.05;97.11
49489;SHT31;35382;51.484;11.476;2023-08-01T06:05:36;16.03;97.32
49489;SHT31;35382;51.484;11.476;2023-08-01T06:08:06;15.99;97.34
49489;SHT31;35382;51.484;11.476;2023-08-01T06:10:31;15.99;97.36
49489;SHT31;35382;51.484;11.476;2023-08-01T06:12:57;16.00;97.47
49489;SHT31;35382;51.484;11.476;2023-08-01T06:15:23;15.99;97.55
49489;SHT31;35382;51.484;11.476;2023-08-01T06:17:51;15.96;97.85
49489;SHT31;35382;51.484;11.476;2023-08-01T06:20:21;15.95;97.99
49489;SHT31;35382;51.484;11.476;2023-08-01T06:22:46;15.93;97.94
49489;SHT31;35382;51.484;11.476;2023-08-01T06:25:12;15.97;97.79
49489;SHT31;35382;51.484;11.476;2023-08-01T06:27:37;16.00;97.71
49489;SHT31;35382;51.484;11.476;2023-08-01T06:30:04;16.02;97.78
49489;SHT31;35382;51.484;11.476;2023-08-01T06:32:29;15.97;97.80
49489;SHT31;35382;51.484;11.476;2023-08-01T06:34:55;15.97;97.86
49489;SHT31;35382;51.484;11.476;2023-08-01T06:37:20;15.97;97.63
49489;SHT31;35382;51.484;11.476;2023-08-01T06:39:46;16.00;97.68
49489;SHT31;35382;51.484;11.476;2023-08-01T06:42:11;15.95;97.71
49489;SHT31;35382;51.484;11.476;2023-08-01T06:44:37;15.92;97.75
49489;SHT31;35382;51.484;11.476;2023-08-01T06:47:02;15.90;97.79
49489;SHT31;35382;51.484;11.476;2023-08-01T06:49:28;15.93;97.64
49489;SHT31;35382;51.484;11.476;2023-08-01T06:51:55;15.96;97.47
49489;SHT31;35382;51.484;11.476;2023-08-01T06:54:21;16.00;97.26
49489;SHT31;35382;51.484;11.476;2023-08-01T06:56:46;15.95;97.55
49489;SHT31;35382;51.484;11.476;2023-08-01T06:59:12;15.92;97.50
49489;SHT31;35382;51.484;11.476;2023-08-01T07:01:37;16.05;97.44
49489;SHT31;35382;51.484;11.476;2023-08-01T07:04:03;16.03;97.40
49489;SHT31;35382;51.484;11.476;2023-08-01T07:06:28;16.09;97.35
49489;SHT31;35382;51.484;11.476;2023-08-01T07:08:53;16.06;97.15
49489;SHT31;35382;51.484;11.476;2023-08-01T07:11:19;16.00;97.06
49489;SHT31;35382;51.484;11.476;2023-08-01T07:13:44;15.99;97.23
49489;SHT31;35382;51.484;11.476;2023-08-01T07:16:10;16.07;97.18
49489;SHT31;35382;51.484;11.476;2023-08-01T07:18:35;15.92;96.65
49489;SHT31;35382;51.484;11.476;2023-08-01T07:21:04;15.83;96.83
49489;SHT31;35382;51.484;11.476;2023-08-01T07:23:31;15.97;97.07
49489;SHT31;35382;51.484;11.476;2023-08-01T07:25:59;15.99;96.86
49489;SHT31;35382;51.484;11.476;2023-08-01T07:28:25;16.16;96.75
49489;SHT31;35382;51.484;11.476;2023-08-01T07:31:10;16.20;96.27
49489;SHT31;35382;51.484;11.476;2023-08-01T07:33:36;16.30;95.63
49489;SHT31;35382;51.484;11.476;2023-08-01T07:36:02;16.33;95.76
49489;SHT31;35382;51.484;11.476;2023-08-01T07:38:27;16.30;95.78
49489;SHT31;35382;51.484;11.476;2023-08-01T07:40:54;16.31;95.20
49489;SHT31;35382;51.484;11.476;2023-08-01T07:43:19;16.20;95.16
49489;SHT31;35382;51.484;11.476;2023-08-01T07:45:45;16.14;95.38
49489;SHT31;35382;51.484;11.476;2023-08-01T07:48:11;16.03;95.94
49489;SHT31;35382;51.484;11.476;2023-08-01T07:50:37;16.06;96.24
49489;SHT31;35382;51.484;11.476;2023-08-01T07:53:02;16.13;96.21
49489;SHT31;35382;51.484;11.476;2023-08-01T07:55:28;16.16;96.35
49489;SHT31;35382;51.484;11.476;2023-08-01T07:57:53;16.21;96.53
49489;SHT31;35382;51.484;11.476;2023-08-01T08:00:18;16.05;96.62
49489;SHT31;35382;51.484;11.476;2023-08-01T08:02:45;15.99;96.77
49489;SHT31;35382;51.484;11.476;2023-08-01T08:05:12;16.03;97.01
49489;SHT31;35382;51.484;11.476;2023-08-01T08:07:38;16.10;96.76
49489;SHT31;35382;51.484;11.476;2023-08-01T08:10:06;16.30;96.80
49489;SHT31;35382;51.484;11.476;2023-08-01T08:12:32;16.23;96.64
49489;SHT31;35382;51.484;11.476;2023-08-01T08:14:57;16.24;96.82
49489;SHT31;35382;51.484;11.476;2023-08-01T08:17:23;16.20;96.85
49489;SHT31;35382;51.484;11.476;2023-08-01T08:19:51;16.21;96.74
49489;SHT31;35382;51.484;11.476;2023-08-01T08:22:17;16.41;96.90
49489;SHT31;35382;51.484;11.476;2023-08-01T08:24:42;16.53;96.22
49489;SHT31;35382;51.484;11.476;2023-08-01T08:27:08;16.46;95.82
49489;SHT31;35382;51.484;11.476;2023-08-01T08:29:33;16.39;95.88
49489;SHT31;35382;51.484;11.476;2023-08-01T08:31:59;16.41;95.84
49489;SHT31;35382;51.484;11.476;2023-08-01T08:34:25;16.46;95.76
49489;SHT31;35382;51.484;11.476;2023-08-01T08:36:52;16.83;94.92
49489;SHT31;35382;51.484;11.476;2023-08-01T08:39:17;17.24;94.93
49489;SHT31;35382;51.484;11.476;2023-08-01T08:41:48;17.17;93.36
49489;SHT31;35382;51.484;11.476;2023-08-01T08:44:16;17.19;93.73
49489;SHT31;35382;51.484;11.476;2023-08-01T08:46:43;17.22;94.72
49489;SHT31;35382;51.484;11.476;2023-08-01T08:49:09;17.32;93.42
49489;SHT31;35382;51.484;11.476;2023-08-01T08:51:36;17.19;92.63
49489;SHT31;35382;51.484;11.476;2023-08-01T08:54:01;17.14;92.95
49489;SHT31;35382;51.484;11.476;2023-08-01T08:56:28;17.49;93.44
49489;SHT31;35382;51.484;11.476;2023-08-01T08:58:54;17.51;92.60
49489;SHT31;35382;51.484;11.476;2023-08-01T09:01:20;17.53;92.84
49489;SHT31;35382;51.484;11.476;2023-08-01T09:03:47;17.69;92.14
49489;SHT31;35382;51.484;11.476;2023-08-01T09:06:17;17.73;90.86
49489;SHT31;35382;51.484;11.476;2023-08-01T09:09:09;17.52;91.41
49489;SHT31;35382;51.484;11.476;2023-08-01T09:11:47;17.62;91.20
49489;SHT31;35382;51.484;11.476;2023-08-01T09:14:14;17.72;90.97
49489;SHT31;35382;51.484;11.476;2023-08-01T09:16:40;17.73;91.05
49489;SHT31;35382;51.484;11.476;2023-08-01T09:19:07;17.83;90.18
49489;SHT31;35382;51.484;11.476;2023-08-01T09:21:33;17.97;90.52
49489;SHT31;35382;51.484;11.476;2023-08-01T09:24:11;18.27;89.40
49489;SHT31;35382;51.484;11.476;2023-08-01T09:26:39;18.51;88.45
49489;SHT31;35382;51.484;11.476;2023-08-01T09:29:07;18.60;88.79
49489;SHT31;35382;51.484;11.476;2023-08-01T09:31:37;18.46;88.92
49489;SHT31;35382;51.484;11.476;2023-08-01T09:34:05;18.14;87.05
49489;SHT31;35382;51.484;11.476;2023-08-01T09:36:30;18.06;88.67
49489;SHT31;35382;51.484;11.476;2023-08-01T09:39:03;18.23;87.19
49489;SHT31;35382;51.484;11.476;2023-08-01T09:41:30;18.25;89.23
49489;SHT31;35382;51.484;11.476;2023-08-01T09:43:56;18.33;87.84
49489;SHT31;35382;51.484;11.476;2023-08-01T09:46:22;18.19;87.86
49489;SHT31;35382;51.484;11.476;2023-08-01T09:48:48;18.12;86.65
49489;SHT31;35382;51.484;11.476;2023-08-01T09:51:15;18.05;87.39
49489;SHT31;35382;51.484;11.476;2023-08-01T09:53:56;18.00;87.43
49489;SHT31;35382;51.484;11.476;2023-08-01T09:56:23;18.02;86.19
49489;SHT31;35382;51.484;11.476;2023-08-01T09:58:50;17.90;87.41
49489;SHT31;35382;51.484;11.476;2023-08-01T10:01:16;18.06;87.26
49489;SHT31;35382;51.484;11.476;2023-08-01T10:03:44;17.86;86.35
49489;SHT31;35382;51.484;11.476;2023-08-01T10:06:11;18.03;87.35
49489;SHT31;35382;51.484;11.476;2023-08-01T10:08:38;17.96;87.01
49489;SHT31;35382;51.484;11.476;2023-08-01T10:11:06;18.10;86.40
49489;SHT31;35382;51.484;11.476;2023-08-01T10:13:32;17.93;85.42
49489;SHT31;35382;51.484;11.476;2023-08-01T10:15:59;18.14;85.71
49489;SHT31;35382;51.484;11.476;2023-08-01T10:18:24;18.19;86.06
49489;SHT31;35382;51.484;11.476;2023-08-01T10:20:51;18.54;84.62
49489;SHT31;35382;51.484;11.476;2023-08-01T10:23:17;18.32;84.57
49489;SHT31;35382;51.484;11.476;2023-08-01T10:25:44;18.54;84.86
49489;SHT31;35382;51.484;11.476;2023-08-01T10:28:09;18.64;84.59
49489;SHT31;35382;51.484;11.476;2023-08-01T10:30:35;18.60;81.57
49489;SHT31;35382;51.484;11.476;2023-08-01T10:33:00;18.57;82.91
49489;SHT31;35382;51.484;11.476;2023-08-01T10:35:33;18.85;80.94
49489;SHT31;35382;51.484;11.476;2023-08-01T10:38:10;19.54;82.43
49489;SHT31;35382;51.484;11.476;2023-08-01T10:40:39;19.79;81.74
49489;SHT31;35382;51.484;11.476;2023-08-01T10:43:05;20.05;79.55
49489;SHT31;35382;51.484;11.476;2023-08-01T10:45:30;20.06;80.44
49489;SHT31;35382;51.484;11.476;2023-08-01T10:48:07;20.36;79.40
49489;SHT31;35382;51.484;11.476;2023-08-01T10:50:34;20.18;76.35
49489;SHT31;35382;51.484;11.476;2023-08-01T10:53:04;20.84;79.46
49489;SHT31;35382;51.484;11.476;2023-08-01T10:55:39;20.29;75.57
49489;SHT31;35382;51.484;11.476;2023-08-01T10:58:04;20.47;77.68
49489;SHT31;35382;51.484;11.476;2023-08-01T11:00:30;20.12;76.00
49489;SHT31;35382;51.484;11.476;2023-08-01T11:02:55;19.95;75.67
49489;SHT31;35382;51.484;11.476;2023-08-01T11:05:22;20.46;77.19
49489;SHT31;35382;51.484;11.476;2023-08-01T11:08:02;20.50;75.75
49489;SHT31;35382;51.484;11.476;2023-08-01T11:10:31;20.74;73.84
49489;SHT31;35382;51.484;11.476;2023-08-01T11:12:58;21.28;72.32
49489;SHT31;35382;51.484;11.476;2023-08-01T11:15:24;20.23;72.38
49489;SHT31;35382;51.484;11.476;2023-08-01T11:17:51;20.79;71.65
49489;SHT31;35382;51.484;11.476;2023-08-01T11:20:21;20.70;71.70
49489;SHT31;35382;51.484;11.476;2023-08-01T11:22:56;20.62;70.06
49489;SHT31;35382;51.484;11.476;2023-08-01T11:25:51;20.56;72.19
49489;SHT31;35382;51.484;11.476;2023-08-01T11:28:16;20.09;71.66
49489;SHT31;35382;51.484;11.476;2023-08-01T11:30:42;19.78;72.10
49489;SHT31;35382;51.484;11.476;2023-08-01T11:33:24;19.36;71.88
49489;SHT31;35382;51.484;11.476;2023-08-01T11:35:56;19.17;74.70
49489;SHT31;35382;51.484;11.476;2023-08-01T11:38:22;20.10;72.49
49489;SHT31;35382;51.484;11.476;2023-08-01T11:40:50;20.94;74.04
49489;SHT31;35382;51.484;11.476;2023-08-01T11:43:15;20.98;71.41
49489;SHT31;35382;51.484;11.476;2023-08-01T11:48:15;20.87;69.87
49489;SHT31;35382;51.484;11.476;2023-08-01T11:50:43;21.21;69.61
49489;SHT31;35382;51.484;11.476;2023-08-01T11:53:20;21.30;69.06
49489;SHT31;35382;51.484;11.476;2023-08-01T11:55:46;21.58;68.17
49489;SHT31;35382;51.484;11.476;2023-08-01T11:58:11;21.57;66.94
49489;SHT31;35382;51.484;11.476;2023-08-01T12:00:37;21.59;64.78
49489;SHT31;35382;51.484;11.476;2023-08-01T12:03:09;21.85;67.64
49489;SHT31;35382;51.484;11.476;2023-08-01T12:05:35;21.71;65.04
49489;SHT31;35382;51.484;11.476;2023-08-01T12:08:11;22.10;64.76
49489;SHT31;35382;51.484;11.476;2023-08-01T12:10:41;22.16;62.31
49489;SHT31;35382;51.484;11.476;2023-08-01T12:13:19;21.00;65.90
49489;SHT31;35382;51.484;11.476;2023-08-01T12:15:46;20.47;64.97
49489;SHT31;35382;51.484;11.476;2023-08-01T12:18:21;20.06;66.90
49489;SHT31;35382;51.484;11.476;2023-08-01T12:20:47;20.20;68.10
49489;SHT31;35382;51.484;11.476;2023-08-01T12:23:12;20.36;67.99
49489;SHT31;35382;51.484;11.476;2023-08-01T12:25:38;20.28;67.85
49489;SHT31;35382;51.484;11.476;2023-08-01T12:28:03;19.81;69.89
49489;SHT31;35382;51.484;11.476;2023-08-01T12:30:29;20.15;70.56
49489;SHT31;35382;51.484;11.476;2023-08-01T12:32:54;21.28;70.17
49489;SHT31;35382;51.484;11.476;2023-08-01T12:35:19;20.88;69.04
49489;SHT31;35382;51.484;11.476;2023-08-01T12:37:46;20.15;69.36
49489;SHT31;35382;51.484;11.476;2023-08-01T12:40:12;19.79;71.30
49489;SHT31;35382;51.484;11.476;2023-08-01T12:42:37;20.04;71.18
49489;SHT31;35382;51.484;11.476;2023-08-01T12:45:02;20.09;70.82
49489;SHT31;35382;51.484;11.476;2023-08-01T12:47:28;20.23;69.05
49489;SHT31;35382;51.484;11.476;2023-08-01T12:49:53;20.32;69.74
49489;SHT31;35382;51.484;11.476;2023-08-01T12:52:23;20.34;68.71
49489;SHT31;35382;51.484;11.476;2023-08-01T12:54:49;21.48;69.25
49489;SHT31;35382;51.484;11.476;2023-08-01T12:57:14;21.62;66.14
49489;SHT31;35382;51.484;11.476;2023-08-01T12:59:40;21.28;66.22
49489;SHT31;35382;51.484;11.476;2023-08-01T13:02:05;20.73;67.26
49489;SHT31;35382;51.484;11.476;2023-08-01T13:04:32;21.01;67.68
49489;SHT31;35382;51.484;11.476;2023-08-01T13:06:57;21.52;66.53
49489;SHT31;35382;51.484;11.476;2023-08-01T13:09:23;22.02;64.08
49489;SHT31;35382;51.484;11.476;2023-08-01T13:11:48;22.59;63.76
49489;SHT31;35382;51.484;11.476;2023-08-01T13:14:14;22.35;62.65
49489;SHT31;35382;51.484;11.476;2023-08-01T13:16:40;22.33;63.47
49489;SHT31;35382;51.484;11.476;2023-08-01T13:19:06;22.80;64.00
49489;SHT31;35382;51.484;11.476;2023-08-01T13:21:31;22.77;62.74
49489;SHT31;35382;51.484;11.476;2023-08-01T13:24:00;22.69;61.24
49489;SHT31;35382;51.484;11.476;2023-08-01T13:26:25;22.80;61.31
49489;SHT31;35382;51.484;11.476;2023-08-01T13:28:50;22.42;61.16
49489;SHT31;35382;51.484;11.476;2023-08-01T13:31:17;22.57;60.85
49489;SHT31;35382;51.484;11.476;2023-08-01T13:33:42;22.48;58.74
49489;SHT31;35382;51.484;11.476;2023-08-01T13:36:07;22.53;60.64
49489;SHT31;35382;51.484;11.476;2023-08-01T13:38:33;22.92;61.59
49489;SHT31;35382;51.484;11.476;2023-08-01T13:40:59;22.60;61.75
49489;SHT31;35382;51.484;11.476;2023-08-01T13:43:25;22.40;61.32
49489;SHT31;35382;51.484;11.476;2023-08-01T13:45:50;22.16;61.95
49489;SHT31;35382;51.484;11.476;2023-08-01T13:48:15;21.77;62.18
49489;SHT31;35382;51.484;11.476;2023-08-01T13:50:41;21.04;63.33
49489;SHT31;35382;51.484;11.476;2023-08-01T13:53:06;20.70;64.82
49489;SHT31;35382;51.484;11.476;2023-08-01T13:55:32;20.47;65.11
49489;SHT31;35382;51.484;11.476;2023-08-01T13:57:57;20.59;65.64
49489;SHT31;35382;51.484;11.476;2023-08-01T14:00:22;20.66;64.32
49489;SHT31;35382;51.484;11.476;2023-08-01T14:02:49;20.72;64.63
49489;SHT31;35382;51.484;11.476;2023-08-01T14:05:15;20.76;64.38
49489;SHT31;35382;51.484;11.476;2023-08-01T14:07:40;21.06;64.16
49489;SHT31;35382;51.484;11.476;2023-08-01T14:10:06;21.55;63.50
49489;SHT31;35382;51.484;11.476;2023-08-01T14:12:31;21.71;61.98
49489;SHT31;35382;51.484;11.476;2023-08-01T14:14:59;21.69;60.67
49489;SHT31;35382;51.484;11.476;2023-08-01T14:17:25;21.68;60.18
49489;SHT31;35382;51.484;11.476;2023-08-01T14:19:50;21.94;60.92
49489;SHT31;35382;51.484;11.476;2023-08-01T14:22:15;22.35;59.52
49489;SHT31;35382;51.484;11.476;2023-08-01T14:24:41;23.20;60.10
49489;SHT31;35382;51.484;11.476;2023-08-01T14:27:06;22.69;60.91
49489;SHT31;35382;51.484;11.476;2023-08-01T14:29:32;22.52;61.61
49489;SHT31;35382;51.484;11.476;2023-08-01T14:31:57;21.62;64.03
49489;SHT31;35382;51.484;11.476;2023-08-01T14:34:22;21.14;64.19
49489;SHT31;35382;51.484;11.476;2023-08-01T14:36:48;20.66;65.25
49489;SHT31;35382;51.484;11.476;2023-08-01T14:39:13;20.59;65.62
49489;SHT31;35382;51.484;11.476;2023-08-01T14:41:39;20.57;67.06
49489;SHT31;35382;51.484;11.476;2023-08-01T14:44:04;20.36;73.22
49489;SHT31;35382;51.484;11.476;2023-08-01T14:46:29;19.85;75.25
49489;SHT31;35382;51.484;11.476;2023-08-01T14:48:55;19.75;74.20
49489;SHT31;35382;51.484;11.476;2023-08-01T14:51:20;20.29;75.68
49489;SHT31;35382;51.484;11.476;2023-08-01T14:53:46;20.70;74.19
49489;SHT31;35382;51.484;11.476;2023-08-01T14:56:11;20.96;70.80
49489;SHT31;35382;51.484;11.476;2023-08-01T14:58:37;21.11;72.21
49489;SHT31;35382;51.484;11.476;2023-08-01T15:01:02;20.62;69.71
49489;SHT31;35382;51.484;11.476;2023-08-01T15:03:27;20.04;68.04
49489;SHT31;35382;51.484;11.476;2023-08-01T15:05:53;19.82;69.36
49489;SHT31;35382;51.484;11.476;2023-08-01T15:08:18;19.55;68.33
49489;SHT31;35382;51.484;11.476;2023-08-01T15:10:44;19.22;69.18
49489;SHT31;35382;51.484;11.476;2023-08-01T15:13:09;18.73;73.84